createdAt,value
2023-02-12T00:01:57.688Z,12.88
2023-02-12T00:04:24.209Z,16.75
2023-02-12T00:06:50.740Z,15.23
2023-02-12T00:09:17.165Z,16.30
2023-02-12T00:11:43.672Z,15.18
2023-02-12T00:14:10.188Z,15.32
2023-02-12T00:16:36.800Z,14.10
2023-02-12T00:19:03.713Z,14.25
2023-02-12T00:21:30.351Z,13.88
2023-02-12T00:23:57.156Z,15.63
2023-02-12T00:26:24.424Z,15.95
2023-02-12T00:28:51.329Z,15.73
2023-02-12T00:31:21.123Z,13.63
2023-02-12T00:33:47.882Z,14.82
2023-02-12T00:36:17.176Z,15.60
2023-02-12T00:38:43.918Z,16.10
2023-02-12T00:41:11.017Z,16.75
2023-02-12T00:43:38.086Z,16.23
2023-02-12T00:46:05.454Z,13.57
2023-02-12T00:48:31.965Z,12.18
2023-02-12T00:50:58.817Z,12.73
2023-02-12T00:53:25.347Z,13.45
2023-02-12T00:55:51.924Z,13.15
2023-02-12T00:58:19.089Z,13.90
2023-02-12T01:00:45.996Z,15.52
2023-02-12T01:03:12.458Z,16.13
2023-02-12T01:05:38.953Z,14.15
2023-02-12T01:08:05.678Z,15.15
2023-02-12T01:10:32.746Z,14.05
2023-02-12T01:12:59.447Z,12.07
2023-02-12T01:15:25.948Z,16.58
2023-02-12T01:17:53.631Z,16.73
2023-02-12T01:20:23.030Z,13.00
2023-02-12T01:22:50.025Z,12.68
2023-02-12T01:25:18.750Z,15.48
2023-02-12T01:27:47.035Z,14.23
2023-02-12T01:30:14.680Z,14.63
2023-02-12T01:32:41.132Z,14.57
2023-02-12T01:35:10.051Z,14.60
2023-02-12T01:37:37.769Z,14.43
2023-02-12T01:40:05.958Z,14.88
2023-02-12T01:42:32.481Z,13.57
2023-02-12T01:45:14.325Z,14.07
2023-02-12T01:47:43.290Z,15.50
2023-02-12T01:50:13.553Z,17.80
2023-02-12T01:52:46.271Z,15.80
2023-02-12T01:55:14.193Z,16.77
2023-02-12T01:57:44.056Z,14.95
2023-02-12T02:00:14.965Z,16.85
2023-02-12T02:02:45.191Z,15.55
2023-02-12T02:05:15.557Z,16.13
2023-02-12T02:07:44.310Z,16.85
2023-02-12T02:10:11.038Z,17.27
2023-02-12T02:12:57.324Z,16.27
2023-02-12T02:15:26.490Z,16.45
2023-02-12T02:18:25.194Z,16.95
2023-02-12T02:21:14.454Z,18.25
2023-02-12T02:24:12.381Z,16.35
2023-02-12T02:26:48.031Z,15.82
2023-02-12T02:29:27.139Z,17.33
2023-02-12T02:32:52.392Z,16.20
2023-02-12T02:35:29.711Z,15.25
2023-02-12T02:38:07.748Z,14.50
2023-02-12T02:41:03.515Z,16.42
2023-02-12T02:43:36.655Z,16.00
2023-02-12T02:46:09.759Z,16.80
2023-02-12T02:48:41.809Z,14.70
2023-02-12T02:51:19.832Z,16.95
2023-02-12T02:53:54.713Z,15.48
2023-02-12T02:59:01.417Z,15.80
2023-02-12T03:01:32.928Z,18.17
2023-02-12T03:04:21.233Z,17.20
2023-02-12T03:06:56.520Z,18.10
2023-02-12T03:09:31.538Z,16.80
2023-02-12T03:12:05.940Z,16.67
2023-02-12T03:14:36.646Z,16.77
2023-02-12T03:17:10.860Z,18.23
2023-02-12T03:19:42.966Z,16.75
2023-02-12T03:22:14.487Z,16.00
2023-02-12T03:25:04.767Z,16.30
2023-02-12T03:27:39.644Z,17.73
2023-02-12T03:32:44.655Z,17.52
2023-02-12T03:35:32.558Z,16.50
2023-02-12T03:38:20.355Z,17.95
2023-02-12T03:40:56.186Z,16.23
2023-02-12T03:43:33.033Z,15.65
2023-02-12T03:46:11.250Z,17.27
2023-02-12T03:48:59.424Z,16.17
2023-02-12T03:51:33.153Z,17.40
2023-02-12T03:54:01.681Z,17.70
2023-02-12T03:56:57.594Z,17.38
2023-02-12T03:59:25.579Z,18.75
2023-02-12T04:01:55.532Z,17.60
2023-02-12T04:04:24.761Z,18.20
2023-02-12T04:06:53.345Z,17.27
2023-02-12T04:09:22.040Z,17.45
2023-02-12T04:12:13.327Z,19.23
2023-02-12T04:15:12.310Z,18.40
2023-02-12T04:17:51.310Z,17.90
2023-02-12T04:20:41.793Z,17.23
2023-02-12T04:23:22.859Z,18.35
2023-02-12T04:26:10.966Z,16.90
2023-02-12T04:29:02.396Z,16.48
2023-02-12T04:31:39.352Z,16.33
2023-02-12T04:34:12.687Z,18.90
2023-02-12T04:36:49.628Z,17.70
2023-02-12T04:39:25.629Z,15.95
2023-02-12T04:41:52.796Z,15.18
2023-02-12T04:44:24.656Z,13.15
2023-02-12T04:46:52.257Z,14.75
2023-02-12T04:49:22.094Z,15.27
2023-02-12T04:51:49.399Z,12.85
2023-02-12T04:54:17.690Z,12.45
2023-02-12T04:56:44.736Z,12.15
2023-02-12T04:59:12.199Z,15.25
2023-02-12T05:01:40.323Z,16.75
2023-02-12T05:04:08.643Z,17.95
2023-02-12T05:06:36.498Z,15.32
2023-02-12T05:09:03.791Z,15.30
2023-02-12T05:11:30.407Z,14.75
2023-02-12T05:13:57.036Z,14.00
2023-02-12T05:16:23.630Z,16.20
2023-02-12T05:18:50.237Z,17.08
2023-02-12T05:21:17.470Z,15.85
2023-02-12T05:23:44.223Z,15.07
2023-02-12T05:26:14.276Z,14.75
2023-02-12T05:28:40.788Z,13.90
2023-02-12T05:31:09.821Z,15.45
2023-02-12T05:33:36.468Z,13.70
2023-02-12T05:36:07.660Z,12.23
2023-02-12T05:38:34.214Z,13.07
2023-02-12T05:41:12.364Z,13.02
2023-02-12T05:43:39.620Z,13.82
2023-02-12T05:46:07.440Z,16.50
2023-02-12T05:48:34.893Z,15.98
2023-02-12T05:51:05.478Z,17.17
2023-02-12T05:53:32.587Z,18.25
2023-02-12T05:56:22.283Z,18.08
2023-02-12T05:58:52.717Z,18.30
2023-02-12T06:01:25.777Z,16.58
2023-02-12T06:03:52.516Z,15.80
2023-02-12T06:06:19.267Z,17.77
2023-02-12T06:08:49.134Z,17.80
2023-02-12T06:11:16.923Z,16.20
2023-02-12T06:13:44.348Z,18.20
2023-02-12T06:16:28.481Z,16.63
2023-02-12T06:18:55.918Z,16.10
2023-02-12T06:21:24.183Z,16.25
2023-02-12T06:23:52.191Z,18.85
2023-02-12T06:26:19.300Z,17.98
2023-02-12T06:28:46.460Z,17.58
2023-02-12T06:31:22.073Z,21.20
2023-02-12T06:33:49.597Z,19.38
2023-02-12T06:36:16.691Z,18.92
2023-02-12T06:38:43.271Z,20.17
2023-02-12T06:41:10.104Z,17.65
2023-02-12T06:43:36.904Z,17.05
2023-02-12T06:46:04.072Z,14.75
2023-02-12T06:48:30.989Z,13.95
2023-02-12T06:51:03.683Z,15.20
2023-02-12T06:53:30.176Z,14.63
2023-02-12T06:55:56.894Z,13.45
2023-02-12T06:58:23.518Z,15.70
2023-02-12T07:00:49.961Z,16.10
2023-02-12T07:03:16.407Z,19.45
2023-02-12T07:05:43.021Z,17.83
2023-02-12T07:08:09.704Z,17.83
2023-02-12T07:10:36.194Z,16.75
2023-02-12T07:13:02.929Z,17.35
2023-02-12T07:15:29.422Z,16.27
2023-02-12T07:17:55.940Z,13.20
2023-02-12T07:20:22.474Z,15.63
2023-02-12T07:22:48.973Z,18.30
2023-02-12T07:25:15.441Z,17.70
2023-02-12T07:27:41.985Z,18.02
2023-02-12T07:30:08.905Z,17.17
2023-02-12T07:32:35.453Z,17.98
2023-02-12T07:35:02.001Z,16.17
2023-02-12T07:37:28.652Z,16.63
2023-02-12T07:39:55.215Z,15.38
2023-02-12T07:42:21.669Z,15.45
2023-02-12T07:44:48.629Z,13.40
2023-02-12T07:47:16.320Z,12.68
2023-02-12T07:49:42.802Z,15.48
2023-02-12T07:52:11.509Z,16.05
2023-02-12T07:54:39.441Z,12.68
2023-02-12T07:57:05.888Z,13.40
2023-02-12T07:59:32.340Z,13.10
2023-02-12T08:02:00.979Z,14.55
2023-02-12T08:04:27.671Z,13.07
2023-02-12T08:06:55.726Z,13.25
2023-02-12T08:11:50.308Z,13.20
2023-02-12T08:14:18.772Z,15.60
2023-02-12T08:16:46.645Z,12.32
2023-02-12T08:19:20.502Z,11.65
2023-02-12T08:21:52.884Z,10.93
2023-02-12T08:24:19.366Z,11.65
2023-02-12T08:26:45.820Z,11.63
2023-02-12T08:29:15.197Z,11.43
2023-02-12T08:31:47.061Z,13.48
2023-02-12T08:34:22.161Z,12.07
2023-02-12T08:36:50.234Z,14.10
2023-02-12T08:39:17.606Z,13.27
2023-02-12T08:41:45.166Z,13.68
2023-02-12T08:44:12.684Z,12.32
2023-02-12T08:46:43.650Z,10.38
2023-02-12T08:49:15.466Z,15.23
2023-02-12T08:51:46.289Z,15.75
2023-02-12T08:54:15.707Z,17.27
2023-02-12T08:56:42.613Z,15.48
2023-02-12T08:59:09.289Z,15.00
2023-02-12T09:01:43.713Z,18.27
2023-02-12T09:04:17.915Z,18.58
2023-02-12T09:06:46.068Z,19.52
2023-02-12T09:09:13.364Z,16.45
2023-02-12T09:11:40.118Z,16.17
2023-02-12T09:14:09.636Z,15.55
2023-02-12T09:16:37.756Z,15.07
2023-02-12T09:19:04.508Z,15.43
2023-02-12T09:21:31.370Z,14.95
2023-02-12T09:23:57.878Z,15.68
2023-02-12T09:26:26.211Z,14.55
2023-02-12T09:28:53.403Z,16.95
2023-02-12T09:31:28.285Z,16.52
2023-02-12T09:33:58.368Z,12.80
2023-02-12T09:36:25.447Z,11.73
2023-02-12T09:38:54.246Z,11.38
2023-02-12T09:41:57.857Z,10.18
2023-02-12T09:44:48.180Z,7.63
2023-02-12T09:47:25.886Z,14.80
2023-02-12T09:50:17.075Z,9.18
2023-02-12T09:52:44.692Z,8.40
2023-02-12T09:55:16.234Z,8.13
2023-02-12T09:57:43.709Z,13.35
2023-02-12T10:00:31.224Z,12.70
2023-02-12T10:03:05.090Z,7.68
2023-02-12T10:05:47.816Z,10.43
2023-02-12T10:08:53.175Z,13.25
2023-02-12T10:11:30.724Z,12.73
2023-02-12T10:14:06.246Z,8.40
2023-02-12T10:16:38.668Z,8.43
2023-02-12T10:19:23.781Z,7.20
2023-02-12T10:22:04.959Z,6.93
2023-02-12T10:25:00.557Z,6.75
2023-02-12T10:27:40.937Z,8.23
2023-02-12T10:30:31.195Z,7.25
2023-02-12T10:33:06.525Z,9.23
2023-02-12T10:35:34.786Z,7.07
2023-02-12T10:38:19.890Z,4.60
2023-02-12T10:40:47.141Z,5.60
2023-02-12T10:43:14.057Z,5.50
2023-02-12T10:45:43.059Z,5.75
2023-02-12T10:48:15.686Z,4.45
2023-02-12T10:51:00.756Z,6.55
2023-02-12T10:53:46.285Z,4.13
2023-02-12T10:56:17.408Z,4.68
2023-02-12T10:58:49.887Z,4.50
2023-02-12T11:01:28.318Z,4.63
2023-02-12T11:03:57.370Z,3.97
2023-02-12T11:06:27.885Z,4.78
2023-02-12T11:08:55.320Z,5.18
2023-02-12T11:11:38.319Z,4.22
2023-02-12T11:14:15.498Z,4.63
2023-02-12T11:16:53.196Z,4.82
2023-02-12T11:19:23.375Z,4.78
2023-02-12T11:21:50.697Z,5.55
2023-02-12T11:24:33.926Z,5.57
2023-02-12T11:27:15.715Z,4.72
2023-02-12T11:29:43.718Z,5.38
2023-02-12T11:32:17.408Z,6.78
2023-02-12T11:34:43.845Z,4.53
2023-02-12T11:37:20.249Z,4.95
2023-02-12T11:39:49.120Z,5.63
2023-02-12T11:42:25.609Z,5.28
2023-02-12T11:44:57.421Z,5.20
2023-02-12T11:47:30.492Z,5.78
2023-02-12T11:50:00.678Z,4.63
2023-02-12T11:52:31.095Z,4.82
2023-02-12T11:55:02.834Z,4.60
2023-02-12T11:57:47.394Z,4.50
2023-02-12T12:00:21.693Z,4.53
2023-02-12T12:02:55.115Z,4.00
2023-02-12T12:05:23.778Z,4.25
2023-02-12T12:07:59.131Z,4.85
2023-02-12T12:15:02.650Z,4.38
2023-02-12T12:18:03.076Z,7.25
2023-02-12T12:20:39.269Z,6.28
2023-02-12T12:23:16.122Z,6.05
2023-02-12T12:25:49.314Z,6.22
2023-02-12T12:28:36.034Z,4.90
2023-02-12T12:31:09.952Z,5.50
2023-02-12T12:33:55.768Z,5.22
2023-02-12T12:36:40.823Z,5.68
2023-02-12T12:39:27.125Z,5.18
2023-02-12T12:42:35.136Z,4.70
2023-02-12T12:45:21.064Z,5.13
2023-02-12T12:48:11.718Z,5.22
2023-02-12T12:51:15.770Z,6.20
2023-02-12T12:54:13.726Z,10.45
2023-02-12T12:56:49.378Z,5.60
2023-02-12T12:59:22.006Z,4.43
2023-02-12T13:02:01.975Z,5.35
2023-02-12T13:04:51.603Z,4.32
2023-02-12T13:07:38.839Z,4.30
2023-02-12T13:10:43.249Z,4.65
2023-02-12T13:13:09.654Z,4.30
2023-02-12T13:15:53.438Z,3.92
2023-02-12T13:18:41.382Z,3.72
2023-02-12T13:21:32.708Z,4.68
2023-02-12T13:24:39.290Z,3.63
2023-02-12T13:27:34.487Z,3.47
2023-02-12T13:30:07.544Z,3.42
2023-02-12T13:32:43.538Z,3.42
2023-02-12T13:35:18.572Z,4.32
2023-02-12T13:37:49.315Z,4.30
2023-02-12T13:40:24.593Z,4.13
2023-02-12T13:42:58.091Z,3.58
2023-02-12T13:45:27.228Z,3.88
2023-02-12T13:48:18.384Z,4.20
2023-02-12T13:51:16.524Z,3.55
2023-02-12T13:54:05.058Z,4.13
2023-02-12T13:56:40.398Z,4.65
2023-02-12T14:03:08.982Z,4.10
2023-02-12T14:05:35.585Z,3.72
2023-02-12T14:08:05.673Z,4.18
2023-02-12T14:10:40.682Z,3.95
2023-02-12T14:13:19.416Z,4.25
2023-02-12T14:15:51.645Z,3.90
2023-02-12T14:18:25.281Z,3.53
2023-02-12T14:21:13.056Z,3.70
2023-02-12T14:23:44.766Z,3.67
2023-02-12T14:26:20.632Z,4.00
2023-02-12T14:29:02.351Z,3.83
2023-02-12T14:31:38.196Z,4.25
2023-02-12T14:34:04.628Z,3.90
2023-02-12T14:36:31.015Z,4.50
2023-02-12T14:39:22.566Z,4.20
2023-02-12T14:41:53.804Z,3.75
2023-02-12T14:44:21.540Z,4.63
2023-02-12T14:46:55.353Z,4.13
2023-02-12T14:49:28.516Z,3.78
2023-02-12T14:52:00.897Z,3.80
2023-02-12T14:54:48.590Z,4.20
2023-02-12T14:57:29.493Z,3.85
2023-02-12T14:59:59.743Z,3.65
2023-02-12T15:02:32.880Z,4.30
2023-02-12T15:05:12.291Z,4.05
2023-02-12T15:07:50.605Z,4.28
2023-02-12T15:10:23.833Z,4.03
2023-02-12T15:13:18.252Z,4.03
2023-02-12T15:15:55.727Z,4.15
2023-02-12T15:18:52.864Z,4.47
2023-02-12T15:21:28.022Z,4.43
2023-02-12T15:24:12.097Z,4.07
2023-02-12T15:26:48.716Z,3.60
2023-02-12T15:29:21.759Z,3.80
2023-02-12T15:31:55.318Z,3.55
2023-02-12T15:34:24.820Z,3.88
2023-02-12T15:36:51.898Z,3.65
2023-02-12T15:39:21.660Z,3.92
2023-02-12T15:41:49.635Z,3.85
2023-02-12T15:46:55.134Z,3.33
2023-02-12T15:49:27.167Z,3.75
2023-02-12T15:51:53.692Z,3.53
2023-02-12T15:54:20.743Z,3.95
2023-02-12T15:56:47.539Z,3.70
2023-02-12T15:59:21.153Z,3.80
2023-02-12T16:02:03.530Z,3.92
2023-02-12T16:04:37.376Z,3.83
2023-02-12T16:07:04.191Z,4.15
2023-02-12T16:09:33.857Z,4.18
2023-02-12T16:12:03.162Z,4.03
2023-02-12T16:14:51.555Z,3.63
2023-02-12T16:17:23.954Z,4.22
2023-02-12T16:20:19.117Z,3.55
2023-02-12T16:22:48.094Z,3.60
2023-02-12T16:25:27.764Z,4.18
2023-02-12T16:28:18.416Z,3.70
2023-02-12T16:30:48.428Z,4.10
2023-02-12T16:33:35.890Z,3.70
2023-02-12T16:36:13.152Z,3.72
2023-02-12T16:38:44.810Z,4.03
2023-02-12T16:41:56.666Z,3.92
2023-02-12T16:44:29.563Z,3.78
2023-02-12T16:46:59.306Z,3.70
2023-02-12T16:49:26.633Z,4.20
2023-02-12T16:55:23.322Z,3.78
2023-02-12T16:57:49.759Z,3.33
2023-02-12T17:00:17.494Z,3.95
2023-02-12T17:02:44.094Z,4.70
2023-02-12T17:05:11.496Z,4.35
2023-02-12T17:07:38.022Z,5.20
2023-02-12T17:10:04.889Z,3.65
2023-02-12T17:12:31.490Z,3.80
2023-02-12T17:14:58.026Z,3.78
2023-02-12T17:17:24.494Z,3.83
2023-02-12T17:19:53.195Z,4.22
2023-02-12T17:22:27.218Z,3.58
2023-02-12T17:24:54.696Z,3.85
2023-02-12T17:27:21.220Z,4.38
2023-02-12T17:29:47.862Z,5.07
2023-02-12T17:32:14.558Z,4.57
2023-02-12T17:34:48.330Z,5.18
2023-02-12T17:37:15.551Z,4.43
2023-02-12T17:39:41.977Z,5.63
2023-02-12T17:42:08.450Z,4.47
2023-02-12T17:44:34.911Z,5.45
2023-02-12T17:47:01.378Z,4.25
2023-02-12T17:49:27.897Z,4.45
2023-02-12T17:51:54.348Z,3.85
2023-02-12T17:54:20.768Z,4.68
2023-02-12T17:56:47.261Z,4.28
2023-02-12T17:59:13.751Z,4.65
2023-02-12T18:01:41.100Z,3.47
2023-02-12T18:04:07.776Z,5.22
2023-02-12T18:06:34.243Z,5.50
2023-02-12T18:09:03.748Z,5.85
2023-02-12T18:11:30.819Z,5.90
2023-02-12T18:13:58.039Z,6.55
2023-02-12T18:16:26.549Z,7.07
2023-02-12T18:18:53.368Z,6.60
2023-02-12T18:21:19.875Z,6.75
2023-02-12T18:23:46.882Z,5.72
2023-02-12T18:26:16.555Z,5.80
2023-02-12T18:28:43.408Z,5.35
2023-02-12T18:31:10.971Z,6.00
2023-02-12T18:33:38.177Z,5.18
2023-02-12T18:36:08.708Z,5.68
2023-02-12T18:38:39.431Z,5.07
2023-02-12T18:41:11.196Z,5.15
2023-02-12T18:43:38.464Z,5.18
2023-02-12T18:46:10.155Z,5.10
2023-02-12T18:48:36.729Z,5.32
2023-02-12T18:51:05.190Z,4.95
2023-02-12T18:53:32.834Z,5.80
2023-02-12T18:56:04.549Z,5.63
2023-02-12T18:58:30.999Z,5.05
2023-02-12T19:00:57.864Z,5.20
2023-02-12T19:03:25.268Z,5.95
2023-02-12T19:05:51.714Z,5.93
2023-02-12T19:08:18.230Z,5.78
2023-02-12T19:10:44.819Z,5.85
2023-02-12T19:13:11.404Z,6.15
2023-02-12T19:15:39.609Z,5.72
2023-02-12T19:18:07.113Z,5.95
2023-02-12T19:20:33.966Z,5.97
2023-02-12T19:23:00.920Z,6.25
2023-02-12T19:25:27.391Z,6.05
2023-02-12T19:27:54.101Z,6.05
2023-02-12T19:30:20.644Z,6.95
2023-02-12T19:32:47.136Z,7.10
2023-02-12T19:35:13.568Z,6.68
2023-02-12T19:37:40.077Z,7.45
2023-02-12T19:40:07.440Z,6.60
2023-02-12T19:42:34.024Z,8.25
2023-02-12T19:45:00.554Z,8.15
2023-02-12T19:47:27.067Z,9.70
2023-02-12T19:49:53.965Z,8.52
2023-02-12T19:52:20.450Z,7.15
2023-02-12T19:54:47.029Z,9.20
2023-02-12T19:57:13.937Z,8.85
2023-02-12T19:59:41.097Z,8.30
2023-02-12T20:02:09.588Z,8.90
2023-02-12T20:04:36.947Z,8.50
2023-02-12T20:07:03.651Z,9.40
2023-02-12T20:09:30.467Z,10.93
2023-02-12T20:11:58.452Z,12.90
2023-02-12T20:14:25.182Z,10.68
2023-02-12T20:16:55.164Z,10.25
2023-02-12T20:19:26.540Z,10.52
2023-02-12T20:21:55.718Z,9.82
2023-02-12T20:24:27.745Z,8.32
2023-02-12T20:26:54.679Z,11.15
2023-02-12T20:29:22.064Z,10.13
2023-02-12T20:31:49.103Z,10.30
2023-02-12T20:34:17.696Z,11.02
2023-02-12T20:36:46.318Z,9.90
2023-02-12T20:39:15.490Z,9.43
2023-02-12T20:41:42.439Z,11.40
2023-02-12T20:44:13.631Z,11.73
2023-02-12T20:46:42.009Z,11.05
2023-02-12T20:49:09.097Z,10.57
2023-02-12T20:51:35.589Z,10.48
2023-02-12T20:54:03.022Z,11.25
2023-02-12T20:56:32.978Z,10.45
2023-02-12T20:59:00.257Z,10.07
2023-02-12T21:01:32.902Z,9.65
2023-02-12T21:04:03.727Z,9.55
2023-02-12T21:06:30.771Z,11.05
2023-02-12T21:08:57.285Z,10.98
2023-02-12T21:11:25.688Z,10.80
2023-02-12T21:13:59.219Z,8.82
2023-02-12T21:16:40.933Z,8.95
2023-02-12T21:19:08.624Z,10.20
2023-02-12T21:21:37.353Z,9.52
2023-02-12T21:24:07.685Z,9.95
2023-02-12T21:26:35.304Z,10.18
2023-02-12T21:29:03.077Z,11.00
2023-02-12T21:31:41.143Z,9.73
2023-02-12T21:34:09.574Z,10.32
2023-02-12T21:39:06.056Z,8.63
2023-02-12T21:41:35.490Z,9.55
2023-02-12T21:44:05.436Z,9.82
2023-02-12T21:46:33.148Z,9.52
2023-02-12T21:48:59.631Z,10.38
2023-02-12T21:51:27.552Z,10.20
2023-02-12T21:53:56.892Z,10.95
2023-02-12T21:56:24.027Z,10.45
2023-02-12T21:58:51.025Z,11.80
2023-02-12T22:01:20.757Z,13.07
2023-02-12T22:03:47.250Z,11.25
2023-02-12T22:06:15.332Z,10.60
2023-02-12T22:08:41.820Z,9.65
2023-02-12T22:11:10.634Z,10.65
2023-02-12T22:13:37.792Z,10.57
2023-02-12T22:16:18.584Z,10.98
2023-02-12T22:18:45.893Z,10.68
2023-02-12T22:21:13.991Z,10.75
2023-02-12T22:23:41.312Z,11.52
2023-02-12T22:26:12.199Z,11.32
2023-02-12T22:28:41.569Z,11.48
2023-02-12T22:31:09.983Z,11.98
2023-02-12T22:33:36.678Z,14.02
2023-02-12T22:36:05.462Z,13.85
2023-02-12T22:38:39.161Z,13.40
2023-02-12T22:41:07.319Z,12.30
2023-02-12T22:43:35.034Z,12.65
2023-02-12T22:46:01.562Z,12.43
2023-02-12T22:48:29.087Z,11.43
2023-02-12T22:50:56.941Z,11.00
2023-02-12T22:53:24.643Z,10.98
2023-02-12T22:55:51.851Z,10.70
2023-02-12T22:58:18.847Z,10.85
2023-02-12T23:00:45.390Z,12.40
2023-02-12T23:03:11.793Z,12.15
2023-02-12T23:05:38.904Z,11.93
2023-02-12T23:08:06.187Z,11.80
2023-02-12T23:10:33.234Z,12.32
2023-02-12T23:13:01.460Z,12.60
2023-02-12T23:15:27.864Z,10.80
2023-02-12T23:17:54.290Z,9.95
2023-02-12T23:20:20.761Z,11.57
2023-02-12T23:22:47.329Z,10.93
2023-02-12T23:25:13.804Z,11.65
2023-02-12T23:27:40.199Z,11.32
2023-02-12T23:30:07.221Z,11.73
2023-02-12T23:32:33.708Z,12.30
2023-02-12T23:35:00.129Z,12.07
2023-02-12T23:37:26.553Z,11.88
2023-02-12T23:39:52.946Z,12.50
2023-02-12T23:42:19.396Z,9.52
2023-02-12T23:44:45.837Z,10.73
2023-02-12T23:47:12.359Z,11.73
2023-02-12T23:49:38.898Z,11.73
2023-02-12T23:52:05.401Z,10.60
2023-02-12T23:54:31.870Z,10.02
2023-02-12T23:56:58.342Z,9.68
2023-02-12T23:59:26.144Z,10.75
